createdAt,value
2019-03-26T00:00:53.688Z,98868.33
2019-03-26T00:03:22.015Z,98867.88
2019-03-26T00:05:50.709Z,98865.53
2019-03-26T00:08:19.010Z,98865.12
2019-03-26T00:10:47.324Z,98865.12
2019-03-26T00:13:15.721Z,98864.67
2019-03-26T00:15:44.041Z,98868.67
2019-03-26T00:18:12.405Z,98870.56
2019-03-26T00:20:40.736Z,98868.38
2019-03-26T00:23:09.046Z,98868.84
2019-03-26T00:25:37.344Z,98864.67
2019-03-26T00:28:05.743Z,98856.52
2019-03-26T00:30:34.133Z,98858.86
2019-03-26T00:33:05.629Z,98867.03
2019-03-26T00:35:34.028Z,98863.41
2019-03-26T00:38:02.355Z,98859.77
2019-03-26T00:40:31.120Z,98862.92
2019-03-26T00:42:59.436Z,98866.17
2019-03-26T00:45:27.739Z,98886.66
2019-03-26T00:47:56.059Z,98888.92
2019-03-26T00:50:24.360Z,98876.18
2019-03-26T00:52:52.816Z,98879.38
2019-03-26T00:55:22.865Z,98886.97
2019-03-26T00:57:51.303Z,98882.63
2019-03-26T01:00:31.589Z,98889.19
2019-03-26T01:03:00.181Z,98901.05
2019-03-26T01:05:30.040Z,98903.33
2019-03-26T01:07:58.341Z,98916.00
2019-03-26T01:10:27.799Z,98901.10
2019-03-26T01:12:56.383Z,98914.87
2019-03-26T01:15:24.729Z,98914.95
2019-03-26T01:17:53.174Z,98909.76
2019-03-26T01:20:21.518Z,98906.72
2019-03-26T01:22:50.110Z,98921.55
2019-03-26T01:25:18.417Z,98929.16
2019-03-26T01:27:47.703Z,98936.45
2019-03-26T01:30:16.077Z,98926.98
2019-03-26T01:32:44.405Z,98928.56
2019-03-26T01:35:12.951Z,98916.52
2019-03-26T01:37:41.336Z,98926.66
2019-03-26T01:40:09.812Z,98933.77
2019-03-26T01:42:38.152Z,98925.14
2019-03-26T01:45:07.828Z,98925.77
2019-03-26T01:47:36.580Z,98932.59
2019-03-26T01:50:05.936Z,98942.42
2019-03-26T01:52:34.240Z,98949.45
2019-03-26T01:55:02.854Z,98943.88
2019-03-26T01:57:31.154Z,98950.02
2019-03-26T01:59:59.839Z,98953.06
2019-03-26T02:02:28.513Z,98957.48
2019-03-26T02:05:00.312Z,98958.86
2019-03-26T02:07:27.335Z,98960.45
2019-03-26T02:09:55.640Z,98962.19
2019-03-26T02:12:24.097Z,98964.41
2019-03-26T02:14:53.212Z,98966.41
2019-03-26T02:17:21.876Z,98969.61
2019-03-26T02:19:50.199Z,98978.56
2019-03-26T02:22:18.589Z,98966.66
2019-03-26T02:24:46.899Z,98963.20
2019-03-26T02:27:15.206Z,98973.69
2019-03-26T02:29:43.535Z,98989.91
2019-03-26T02:32:12.053Z,98980.36
2019-03-26T02:34:40.593Z,98992.23
2019-03-26T02:37:08.943Z,98982.61
2019-03-26T02:39:37.279Z,98980.36
2019-03-26T02:42:05.592Z,98994.33
2019-03-26T02:44:33.893Z,99001.77
2019-03-26T02:47:02.210Z,99008.38
2019-03-26T02:49:30.518Z,99015.54
2019-03-26T02:51:58.838Z,99004.73
2019-03-26T02:54:27.185Z,99018.41
2019-03-26T02:56:55.883Z,99012.52
2019-03-26T02:59:24.184Z,99009.59
2019-03-26T03:01:52.515Z,99016.28
2019-03-26T03:04:21.021Z,99018.75
2019-03-26T03:06:49.713Z,99018.44
2019-03-26T03:09:18.056Z,99017.10
2019-03-26T03:11:46.317Z,99030.11
2019-03-26T03:14:14.704Z,99030.88
2019-03-26T03:16:43.345Z,99023.55
2019-03-26T03:19:15.627Z,99026.23
2019-03-26T03:21:41.783Z,99024.38
2019-03-26T03:24:10.102Z,99030.99
2019-03-26T03:26:38.430Z,99034.71
2019-03-26T03:29:07.205Z,99034.39
2019-03-26T03:31:35.595Z,99035.06
2019-03-26T03:34:04.013Z,99047.21
2019-03-26T03:36:32.465Z,99047.21
2019-03-26T03:39:00.803Z,99052.41
2019-03-26T03:41:29.116Z,99049.43
2019-03-26T03:43:57.483Z,99064.53
2019-03-26T03:46:25.818Z,99066.54
2019-03-26T03:48:54.563Z,99060.48
2019-03-26T03:51:24.671Z,99061.02
2019-03-26T03:53:53.189Z,99069.49
2019-03-26T03:56:23.063Z,99076.61
2019-03-26T03:58:51.849Z,99079.98
2019-03-26T04:01:20.366Z,99082.23
2019-03-26T04:03:48.761Z,99081.28
2019-03-26T04:06:17.058Z,99081.97
2019-03-26T04:08:45.389Z,99080.04
2019-03-26T04:11:14.091Z,99083.53
2019-03-26T04:13:42.493Z,99083.95
2019-03-26T04:16:10.858Z,99083.97
2019-03-26T04:18:39.159Z,99090.30
2019-03-26T04:21:07.545Z,99097.06
2019-03-26T04:23:35.854Z,99101.15
2019-03-26T04:26:04.227Z,99095.50
2019-03-26T04:28:32.604Z,99104.58
2019-03-26T04:31:01.142Z,99108.45
2019-03-26T04:33:29.436Z,99124.23
2019-03-26T04:35:57.770Z,99124.59
2019-03-26T04:38:26.058Z,99128.38
2019-03-26T04:40:54.393Z,99135.38
2019-03-26T04:43:22.702Z,99132.81
2019-03-26T04:45:51.333Z,99138.81
2019-03-26T04:48:19.651Z,99138.95
2019-03-26T04:50:47.948Z,99136.00
2019-03-26T04:53:16.270Z,99136.89
2019-03-26T04:55:44.579Z,99142.33
2019-03-26T04:58:13.052Z,99143.09
2019-03-26T05:00:41.419Z,99147.50
2019-03-26T05:03:09.799Z,99146.58
2019-03-26T05:05:38.491Z,99142.72
2019-03-26T05:08:06.792Z,99138.11
2019-03-26T05:10:35.182Z,99143.30
2019-03-26T05:13:03.496Z,99146.95
2019-03-26T05:15:31.813Z,99148.42
2019-03-26T05:18:00.107Z,99155.42
2019-03-26T05:20:28.504Z,99162.17
2019-03-26T05:22:56.811Z,99162.70
2019-03-26T05:25:25.184Z,99162.49
2019-03-26T05:27:54.508Z,99168.00
2019-03-26T05:30:22.814Z,99172.31
2019-03-26T05:32:51.146Z,99183.69
2019-03-26T05:35:19.446Z,99179.25
2019-03-26T05:37:47.761Z,99180.47
2019-03-26T05:40:16.518Z,99183.45
2019-03-26T05:42:44.968Z,99188.67
2019-03-26T05:45:14.752Z,99194.70
2019-03-26T05:47:43.126Z,99197.20
2019-03-26T05:50:12.382Z,99193.56
2019-03-26T05:52:40.763Z,99199.44
2019-03-26T05:55:10.544Z,99195.92
2019-03-26T05:57:39.044Z,99201.20
2019-03-26T06:00:11.685Z,99195.84
2019-03-26T06:02:40.293Z,99204.64
2019-03-26T06:05:08.779Z,99202.92
2019-03-26T06:07:37.074Z,99205.75
2019-03-26T06:10:08.179Z,99211.47
2019-03-26T06:12:36.496Z,99207.73
2019-03-26T06:15:08.012Z,99207.73
2019-03-26T06:17:36.329Z,99208.39
2019-03-26T06:20:06.942Z,99215.45
2019-03-26T06:22:35.352Z,99220.32
2019-03-26T06:25:06.537Z,99211.58
2019-03-26T06:27:34.862Z,99207.59
2019-03-26T06:30:03.802Z,99216.37
2019-03-26T06:32:32.191Z,99212.99
2019-03-26T06:35:00.813Z,99218.20
2019-03-26T06:37:29.162Z,99223.87
2019-03-26T06:39:58.593Z,99205.52
2019-03-26T06:42:27.062Z,99222.09
2019-03-26T06:44:55.372Z,99222.09
2019-03-26T06:47:23.801Z,99226.09
2019-03-26T06:49:52.445Z,99228.48
2019-03-26T06:52:20.776Z,99225.05
2019-03-26T06:54:51.579Z,99229.64
2019-03-26T06:57:19.136Z,99221.13
2019-03-26T06:59:47.543Z,99219.67
2019-03-26T07:02:15.903Z,99217.06
2019-03-26T07:04:46.314Z,99216.03
2019-03-26T07:07:14.793Z,99229.81
2019-03-26T07:09:43.134Z,99229.58
2019-03-26T07:12:11.568Z,99236.61
2019-03-26T07:14:39.871Z,99235.40
2019-03-26T07:17:08.202Z,99246.33
2019-03-26T07:19:36.503Z,99240.05
2019-03-26T07:22:05.184Z,99251.22
2019-03-26T07:24:33.558Z,99250.52
2019-03-26T07:27:01.945Z,99250.45
2019-03-26T07:29:30.637Z,99254.63
2019-03-26T07:31:59.026Z,99258.47
2019-03-26T07:34:27.845Z,99258.59
2019-03-26T07:36:56.172Z,99258.44
2019-03-26T07:39:24.774Z,99253.20
2019-03-26T07:41:53.233Z,99249.84
2019-03-26T07:44:21.612Z,99252.73
2019-03-26T07:46:50.031Z,99252.22
2019-03-26T07:49:18.328Z,99254.55
2019-03-26T07:51:46.724Z,99263.50
2019-03-26T07:54:15.059Z,99266.52
2019-03-26T07:56:43.362Z,99254.79
2019-03-26T07:59:11.705Z,99256.91
2019-03-26T08:01:39.999Z,99259.55
2019-03-26T08:04:08.314Z,99260.19
2019-03-26T08:06:36.617Z,99257.47
2019-03-26T08:09:06.662Z,99268.55
2019-03-26T08:11:34.971Z,99267.03
2019-03-26T08:14:03.526Z,99263.53
2019-03-26T08:16:33.269Z,99266.42
2019-03-26T08:19:01.549Z,99267.28
2019-03-26T08:21:29.913Z,99268.06
2019-03-26T08:23:58.214Z,99266.72
2019-03-26T08:26:26.534Z,99272.98
2019-03-26T08:28:54.830Z,99277.66
2019-03-26T08:31:23.563Z,99290.70
2019-03-26T08:33:52.274Z,99280.88
2019-03-26T08:36:21.370Z,99280.88
2019-03-26T08:38:50.547Z,99279.65
2019-03-26T08:41:19.020Z,99284.28
2019-03-26T08:43:48.036Z,99288.48
2019-03-26T08:46:16.708Z,99293.81
2019-03-26T08:48:45.411Z,99302.58
2019-03-26T08:51:13.711Z,99301.49
2019-03-26T08:53:42.032Z,99296.67
2019-03-26T08:56:10.353Z,99298.72
2019-03-26T08:58:38.665Z,99308.14
2019-03-26T09:01:06.977Z,99314.42
2019-03-26T09:03:35.373Z,99307.52
2019-03-26T09:06:03.698Z,99291.64
2019-03-26T09:08:31.988Z,99297.45
2019-03-26T09:11:00.319Z,99311.92
2019-03-26T09:13:28.609Z,99319.65
2019-03-26T09:15:56.937Z,99329.87
2019-03-26T09:18:25.236Z,99331.84
2019-03-26T09:20:53.570Z,99324.07
2019-03-26T09:23:21.868Z,99323.58
2019-03-26T09:25:50.201Z,99338.28
2019-03-26T09:28:18.522Z,99357.77
2019-03-26T09:30:46.828Z,99337.00
2019-03-26T09:33:15.359Z,99342.77
2019-03-26T09:35:43.649Z,99341.50
2019-03-26T09:38:12.317Z,99361.03
2019-03-26T09:40:41.069Z,99363.28
2019-03-26T09:43:09.361Z,99370.12
2019-03-26T09:45:37.750Z,99349.98
2019-03-26T09:48:06.119Z,99343.18
2019-03-26T09:50:36.592Z,99332.38
2019-03-26T09:53:05.226Z,99338.34
2019-03-26T09:55:33.533Z,99353.52
2019-03-26T09:58:01.934Z,99345.08
2019-03-26T10:00:30.303Z,99331.24
2019-03-26T10:02:58.564Z,99325.48
2019-03-26T10:05:26.926Z,99330.06
2019-03-26T10:07:55.673Z,99343.19
2019-03-26T10:10:23.970Z,99335.11
2019-03-26T10:12:52.292Z,99335.07
2019-03-26T10:15:21.026Z,99324.03
2019-03-26T10:17:49.358Z,99324.05
2019-03-26T10:20:18.103Z,99322.28
2019-03-26T10:22:47.301Z,99330.87
2019-03-26T10:25:15.685Z,99316.45
2019-03-26T10:27:44.000Z,99340.51
2019-03-26T10:30:14.953Z,99324.03
2019-03-26T10:32:43.313Z,99332.83
2019-03-26T10:35:11.908Z,99328.31
2019-03-26T10:37:40.275Z,99330.91
2019-03-26T10:40:09.432Z,99334.14
2019-03-26T10:42:38.070Z,99314.64
2019-03-26T10:45:07.778Z,99325.98
2019-03-26T10:47:36.097Z,99301.35
2019-03-26T10:50:05.925Z,99337.61
2019-03-26T10:52:34.643Z,99305.17
2019-03-26T10:55:03.684Z,99309.48
2019-03-26T10:57:32.098Z,99312.84
2019-03-26T11:00:00.502Z,99315.58
2019-03-26T11:02:29.077Z,99315.12
2019-03-26T11:04:57.522Z,99310.41
2019-03-26T11:07:25.838Z,99303.46
2019-03-26T11:09:54.281Z,99314.91
2019-03-26T11:12:22.931Z,99296.91
2019-03-26T11:14:51.227Z,99294.27
2019-03-26T11:17:19.794Z,99292.63
2019-03-26T11:19:48.159Z,99290.10
2019-03-26T11:22:16.451Z,99289.66
2019-03-26T11:24:44.836Z,99281.60
2019-03-26T11:27:13.229Z,99283.61
2019-03-26T11:29:41.556Z,99278.70
2019-03-26T11:32:09.917Z,99278.30
2019-03-26T11:34:38.245Z,99266.55
2019-03-26T11:37:06.539Z,99262.09
2019-03-26T11:39:34.835Z,99259.34
2019-03-26T11:42:03.607Z,99262.80
2019-03-26T11:44:31.905Z,99262.80
2019-03-26T11:47:00.219Z,99278.21
2019-03-26T11:49:28.516Z,99273.64
2019-03-26T11:51:57.070Z,99289.34
2019-03-26T11:54:25.391Z,99253.73
2019-03-26T11:56:53.986Z,99268.12
2019-03-26T11:59:22.276Z,99260.91
2019-03-26T12:01:52.457Z,99269.83
2019-03-26T12:04:20.983Z,99257.22
2019-03-26T12:06:49.301Z,99280.60
2019-03-26T12:09:18.152Z,99278.44
2019-03-26T12:11:46.865Z,99271.14
2019-03-26T12:14:15.258Z,99263.31
2019-03-26T12:16:43.554Z,99250.19
2019-03-26T12:19:12.010Z,99255.77
2019-03-26T12:21:40.321Z,99260.32
2019-03-26T12:24:08.701Z,99243.88
2019-03-26T12:26:37.030Z,99245.94
2019-03-26T12:29:05.921Z,99248.70
2019-03-26T12:31:34.241Z,99249.16
2019-03-26T12:34:03.273Z,99258.02
2019-03-26T12:36:39.826Z,99235.80
2019-03-26T12:39:01.922Z,99247.50
2019-03-26T12:41:30.242Z,99248.39
2019-03-26T12:43:58.604Z,99248.24
2019-03-26T12:46:27.039Z,99238.11
2019-03-26T12:48:55.326Z,99269.91
2019-03-26T12:51:23.630Z,99254.67
2019-03-26T12:53:51.960Z,99245.55
2019-03-26T12:56:20.314Z,99246.25
2019-03-26T12:58:48.693Z,99240.04
2019-03-26T13:01:16.987Z,99249.21
2019-03-26T13:03:45.383Z,99252.23
2019-03-26T13:06:13.745Z,99251.88
2019-03-26T13:08:42.387Z,99246.19
2019-03-26T13:11:10.724Z,99213.05
2019-03-26T13:13:39.079Z,99235.06
2019-03-26T13:16:07.465Z,99224.49
2019-03-26T13:18:35.773Z,99232.73
2019-03-26T13:21:04.500Z,99223.81
2019-03-26T13:23:32.790Z,99215.80
2019-03-26T13:26:01.110Z,99209.92
2019-03-26T13:28:29.441Z,99226.13
2019-03-26T13:30:57.767Z,99242.69
2019-03-26T13:33:26.073Z,99234.73
2019-03-26T13:35:54.446Z,99215.30
2019-03-26T13:38:23.174Z,99224.77
2019-03-26T13:40:51.539Z,99235.73
2019-03-26T13:43:19.933Z,99216.84
2019-03-26T13:45:48.515Z,99212.81
2019-03-26T13:48:16.832Z,99214.83
2019-03-26T13:50:45.135Z,99210.56
2019-03-26T13:53:13.430Z,99215.48
2019-03-26T13:55:41.759Z,99219.95
2019-03-26T13:58:10.048Z,99217.80
2019-03-26T14:00:39.459Z,99228.27
2019-03-26T14:03:07.907Z,99210.98
2019-03-26T14:05:36.292Z,99211.89
2019-03-26T14:08:04.948Z,99212.98
2019-03-26T14:10:40.764Z,99206.59
2019-03-26T14:13:03.293Z,99209.30
2019-03-26T14:15:31.658Z,99228.39
2019-03-26T14:17:59.969Z,99217.06
2019-03-26T14:20:28.330Z,99189.67
2019-03-26T14:22:56.657Z,99234.47
2019-03-26T14:25:25.239Z,99203.27
2019-03-26T14:27:53.977Z,99176.28
2019-03-26T14:30:36.615Z,99186.28
2019-03-26T14:33:05.477Z,99195.91
2019-03-26T14:35:33.812Z,99199.20
2019-03-26T14:38:02.353Z,99200.73
2019-03-26T14:40:30.839Z,99196.64
2019-03-26T14:42:59.137Z,99204.12
2019-03-26T14:45:27.563Z,99196.92
2019-03-26T14:47:56.190Z,99198.47
2019-03-26T14:50:24.530Z,99181.67
2019-03-26T14:52:52.876Z,99192.27
2019-03-26T14:55:21.297Z,99178.47
2019-03-26T14:57:49.579Z,99178.80
2019-03-26T15:00:18.251Z,99199.44
2019-03-26T15:02:46.559Z,99184.04
2019-03-26T15:05:14.917Z,99180.03
2019-03-26T15:07:43.238Z,99182.97
2019-03-26T15:10:11.942Z,99192.58
2019-03-26T15:12:40.322Z,99177.39
2019-03-26T15:15:08.859Z,99194.67
2019-03-26T15:17:37.179Z,99189.26
2019-03-26T15:20:08.360Z,99191.47
2019-03-26T15:22:36.752Z,99184.31
2019-03-26T15:25:06.377Z,99188.05
2019-03-26T15:27:34.789Z,99172.01
2019-03-26T15:30:03.872Z,99223.18
2019-03-26T15:32:32.166Z,99189.89
2019-03-26T15:35:00.593Z,99196.30
2019-03-26T15:37:28.940Z,99197.96
2019-03-26T15:39:57.260Z,99200.95
2019-03-26T15:42:25.623Z,99215.89
2019-03-26T15:44:54.299Z,99198.92
2019-03-26T15:47:22.597Z,99200.02
2019-03-26T15:49:50.967Z,99207.23
2019-03-26T15:52:19.557Z,99193.59
2019-03-26T15:54:47.929Z,99192.14
2019-03-26T15:57:16.310Z,99197.75
2019-03-26T15:59:44.607Z,99196.79
2019-03-26T16:02:13.382Z,99192.83
2019-03-26T16:04:41.675Z,99185.73
2019-03-26T16:07:10.281Z,99200.09
2019-03-26T16:09:38.577Z,99216.49
2019-03-26T16:12:06.890Z,99207.97
2019-03-26T16:14:35.228Z,99205.65
2019-03-26T16:17:03.657Z,99204.02
2019-03-26T16:19:33.036Z,99200.69
2019-03-26T16:22:01.835Z,99202.63
2019-03-26T16:24:30.136Z,99210.81
2019-03-26T16:26:58.722Z,99213.00
2019-03-26T16:29:27.060Z,99198.14
2019-03-26T16:31:55.451Z,99210.36
2019-03-26T16:34:24.074Z,99202.80
2019-03-26T16:36:59.421Z,99199.84
2019-03-26T16:39:22.900Z,99202.34
2019-03-26T16:41:51.207Z,99201.27
2019-03-26T16:44:19.620Z,99197.56
2019-03-26T16:46:47.910Z,99211.71
2019-03-26T16:49:16.207Z,99207.96
2019-03-26T16:51:44.914Z,99206.29
2019-03-26T16:54:13.200Z,99204.61
2019-03-26T16:56:41.501Z,99204.34
2019-03-26T16:59:09.836Z,99209.49
2019-03-26T17:01:38.124Z,99205.41
2019-03-26T17:04:06.909Z,99211.38
2019-03-26T17:06:35.204Z,99216.64
2019-03-26T17:09:04.161Z,99208.84
2019-03-26T17:11:32.480Z,99205.67
2019-03-26T17:14:00.804Z,99219.73
2019-03-26T17:16:29.543Z,99214.42
2019-03-26T17:18:57.831Z,99219.20
2019-03-26T17:21:26.147Z,99225.38
2019-03-26T17:23:54.438Z,99218.77
2019-03-26T17:26:22.822Z,99224.36
2019-03-26T17:28:51.330Z,99223.98
2019-03-26T17:31:19.638Z,99227.17
2019-03-26T17:33:48.008Z,99223.50
2019-03-26T17:36:16.315Z,99229.66
2019-03-26T17:38:44.621Z,99228.95
2019-03-26T17:41:12.918Z,99237.41
2019-03-26T17:43:41.226Z,99239.15
2019-03-26T17:46:09.527Z,99243.56
2019-03-26T17:48:37.849Z,99245.06
2019-03-26T17:51:06.282Z,99242.11
2019-03-26T17:53:34.623Z,99245.06
2019-03-26T17:56:03.076Z,99251.59
2019-03-26T17:58:31.515Z,99249.62
2019-03-26T18:00:59.901Z,99252.05
2019-03-26T18:03:28.190Z,99259.90
2019-03-26T18:05:56.560Z,99255.98
2019-03-26T18:08:24.947Z,99260.83
2019-03-26T18:10:53.370Z,99262.39
2019-03-26T18:13:21.741Z,99260.75
2019-03-26T18:15:50.139Z,99262.58
2019-03-26T18:18:18.514Z,99265.00
2019-03-26T18:20:46.828Z,99265.52
2019-03-26T18:23:15.186Z,99265.95
2019-03-26T18:25:43.491Z,99266.77
2019-03-26T18:28:11.873Z,99268.87
2019-03-26T18:30:40.906Z,99270.69
2019-03-26T18:33:09.675Z,99214.30
2019-03-26T18:35:38.055Z,99274.20
2019-03-26T18:38:06.371Z,99273.75
2019-03-26T18:40:34.683Z,99280.80
2019-03-26T18:43:03.002Z,99287.77
2019-03-26T18:45:31.304Z,99289.70
2019-03-26T18:47:59.695Z,99287.88
2019-03-26T18:50:28.016Z,99287.88
2019-03-26T18:52:56.727Z,99283.64
2019-03-26T18:55:25.417Z,99290.89
2019-03-26T18:57:53.925Z,99290.06
2019-03-26T19:00:38.540Z,99294.25
2019-03-26T19:03:07.606Z,99299.98
2019-03-26T19:05:36.063Z,99285.68
2019-03-26T19:08:05.102Z,99289.97
2019-03-26T19:10:35.060Z,99289.94
2019-03-26T19:13:18.067Z,99295.39
2019-03-26T19:15:34.282Z,99296.23
2019-03-26T19:18:02.659Z,99300.73
2019-03-26T19:20:31.095Z,99300.41
2019-03-26T19:22:59.483Z,99304.78
2019-03-26T19:25:27.875Z,99303.03
2019-03-26T19:27:56.183Z,99301.79
2019-03-26T19:30:24.478Z,99304.23
2019-03-26T19:32:52.793Z,99301.30
2019-03-26T19:35:21.091Z,99299.98
2019-03-26T19:37:49.731Z,99298.63
2019-03-26T19:40:18.120Z,99302.49
2019-03-26T19:42:46.795Z,99303.22
2019-03-26T19:45:15.700Z,99297.84
2019-03-26T19:47:44.017Z,99305.12
2019-03-26T19:50:13.765Z,99308.58
2019-03-26T19:52:42.958Z,99303.10
2019-03-26T19:55:11.424Z,99305.38
2019-03-26T19:57:39.712Z,99310.02
2019-03-26T20:00:15.276Z,99311.08
2019-03-26T20:02:43.810Z,99312.53
2019-03-26T20:05:12.462Z,99312.02
2019-03-26T20:07:40.915Z,99313.33
2019-03-26T20:10:11.062Z,99313.44
2019-03-26T20:12:39.431Z,99313.85
2019-03-26T20:15:10.126Z,99317.25
2019-03-26T20:17:38.583Z,99312.02
2019-03-26T20:20:07.890Z,99316.64
2019-03-26T20:22:36.211Z,99316.80
2019-03-26T20:25:06.157Z,99329.19
2019-03-26T20:27:34.479Z,99323.85
2019-03-26T20:30:02.913Z,99329.63
2019-03-26T20:32:31.219Z,99323.30
2019-03-26T20:34:59.549Z,99329.48
2019-03-26T20:37:27.835Z,99323.52
2019-03-26T20:39:56.199Z,99321.91
2019-03-26T20:42:24.500Z,99323.85
2019-03-26T20:44:52.802Z,99332.59
2019-03-26T20:47:21.170Z,99330.66
2019-03-26T20:49:49.479Z,99327.47
2019-03-26T20:52:17.871Z,99331.01
2019-03-26T20:54:47.827Z,99327.47
2019-03-26T20:57:16.161Z,99326.91
2019-03-26T20:59:44.450Z,99334.11
2019-03-26T21:02:12.752Z,99335.38
2019-03-26T21:04:41.060Z,99338.22
2019-03-26T21:07:09.790Z,99338.98
2019-03-26T21:09:38.479Z,99353.77
2019-03-26T21:12:06.831Z,99340.49
2019-03-26T21:14:35.589Z,99344.06
2019-03-26T21:17:03.990Z,99338.04
2019-03-26T21:19:32.351Z,99347.13
2019-03-26T21:22:00.710Z,99343.73
2019-03-26T21:24:29.067Z,99345.86
2019-03-26T21:26:57.406Z,99356.82
2019-03-26T21:29:25.809Z,99354.10
2019-03-26T21:31:54.109Z,99360.22
2019-03-26T21:34:30.313Z,99354.68
2019-03-26T21:36:52.579Z,99359.84
2019-03-26T21:39:21.228Z,99355.41
2019-03-26T21:41:50.012Z,99362.35
2019-03-26T21:44:18.403Z,99356.50
2019-03-26T21:46:46.677Z,99353.00
2019-03-26T21:49:14.981Z,99358.41
2019-03-26T21:51:43.892Z,99357.86
2019-03-26T21:54:12.360Z,99363.35
2019-03-26T21:56:41.015Z,99360.61
2019-03-26T21:59:09.307Z,99364.55
2019-03-26T22:01:37.619Z,99365.45
2019-03-26T22:04:05.910Z,99363.66
2019-03-26T22:06:34.227Z,99359.09
2019-03-26T22:09:02.524Z,99366.27
2019-03-26T22:11:31.197Z,99369.61
2019-03-26T22:13:59.487Z,99374.45
2019-03-26T22:16:27.853Z,99378.95
2019-03-26T22:18:56.237Z,99369.92
2019-03-26T22:21:24.531Z,99368.95
2019-03-26T22:23:52.841Z,99364.45
2019-03-26T22:26:21.136Z,99371.14
2019-03-26T22:28:49.515Z,99366.27
2019-03-26T22:31:18.155Z,99380.70
2019-03-26T22:33:46.621Z,99380.28
2019-03-26T22:36:14.918Z,99382.47
2019-03-26T22:38:43.211Z,99379.66
2019-03-26T22:41:11.798Z,99382.38
2019-03-26T22:43:40.478Z,99389.22
2019-03-26T22:46:09.161Z,99375.16
2019-03-26T22:48:37.494Z,99342.44
2019-03-26T22:51:05.893Z,99372.99
2019-03-26T22:53:34.214Z,99370.63
2019-03-26T22:56:02.746Z,99371.31
2019-03-26T22:58:31.093Z,99369.84
2019-03-26T23:00:59.555Z,99365.48
2019-03-26T23:03:28.687Z,99361.00
2019-03-26T23:05:56.980Z,99359.70
2019-03-26T23:08:25.298Z,99371.06
2019-03-26T23:10:53.902Z,99375.26
2019-03-26T23:13:22.469Z,99372.37
2019-03-26T23:15:50.782Z,99377.00
2019-03-26T23:18:19.215Z,99375.11
2019-03-26T23:20:47.939Z,99365.16
2019-03-26T23:23:16.228Z,99369.28
2019-03-26T23:25:44.547Z,99371.34
2019-03-26T23:28:12.841Z,99372.50
2019-03-26T23:30:41.171Z,99377.69
2019-03-26T23:33:09.527Z,99386.48
2019-03-26T23:35:37.933Z,99391.70
2019-03-26T23:38:06.821Z,99391.97
2019-03-26T23:40:35.417Z,99389.42
2019-03-26T23:43:03.800Z,99390.50
2019-03-26T23:45:32.103Z,99394.02
2019-03-26T23:48:00.488Z,99391.61
2019-03-26T23:50:28.965Z,99394.74
2019-03-26T23:52:57.334Z,99395.79
2019-03-26T23:55:26.003Z,99401.87
2019-03-26T23:57:54.298Z,99402.32
